Time;durP1;ratioP1;P1;durP2;ratioP2;P2;SDS_P1;SDS_P2;PMS_P1;PMS_P2;Temp;Humidity;BMP_temperature;BMP_pressure;BME280_temperature;BME280_humidity;BME280_pressure;Samples;Min_cycle;Max_cycle;Signal;HPM_P1;HPM_P2
2022/08/19 00:01:44;;;;;;;37.72;5.15;;;30.90;88.40;;;;;;5048941;28;20025;-70
2022/08/19 00:04:12;;;;;;;30.00;4.70;;;30.50;89.80;;;;;;5050157;28;20478;-70
2022/08/19 00:06:40;;;;;;;32.15;5.13;;;30.20;90.30;;;;;;5050503;28;20056;-70
2022/08/19 00:09:09;;;;;;;31.00;5.00;;;30.10;90.50;;;;;;5050176;28;20032;-70
2022/08/19 00:11:36;;;;;;;32.75;5.30;;;30.00;90.60;;;;;;5049816;28;20096;-70
2022/08/19 00:14:04;;;;;;;34.17;5.88;;;29.90;90.50;;;;;;5054178;28;20377;-69
2022/08/19 00:16:30;;;;;;;36.47;5.15;;;30.00;90.40;;;;;;5054096;28;20166;-70
2022/08/19 00:18:56;;;;;;;34.15;5.57;;;30.00;90.40;;;;;;5054113;28;20025;-70
2022/08/19 00:21:26;;;;;;;29.58;5.00;;;30.00;90.30;;;;;;5054491;28;20029;-70
2022/08/19 00:23:54;;;;;;;37.50;5.32;;;30.00;90.40;;;;;;5054348;28;20312;-70
2022/08/19 00:26:20;;;;;;;35.30;4.78;;;30.00;90.80;;;;;;5054124;28;20025;-70
2022/08/19 00:28:47;;;;;;;31.90;5.15;;;29.90;91.10;;;;;;5053714;28;20053;-70
2022/08/19 00:31:13;;;;;;;34.65;5.03;;;29.90;93.10;;;;;;5053781;28;20450;-70
2022/08/19 00:33:39;;;;;;;24.23;4.97;;;29.90;94.70;;;;;;5053729;28;20041;-70
2022/08/19 00:36:07;;;;;;;32.58;4.97;;;29.90;95.70;;;;;;5053848;28;20100;-70
2022/08/19 00:38:35;;;;;;;32.30;5.85;;;29.90;96.90;;;;;;5053648;28;20048;-69
2022/08/19 00:41:01;;;;;;;30.27;5.13;;;29.80;98.10;;;;;;5054064;28;20489;-70
2022/08/19 00:43:27;;;;;;;30.83;5.28;;;29.80;99.20;;;;;;5053752;28;20033;-70
2022/08/19 00:45:54;;;;;;;20.73;4.00;;;29.80;99.90;;;;;;5053630;28;20029;-70
2022/08/19 00:48:20;;;;;;;;;;;29.80;99.90;;;;;;5053980;28;20033;-70
2022/08/19 00:50:48;;;;;;;18.05;3.92;;;29.60;99.90;;;;;;5052078;28;19927;-70
2022/08/19 00:53:18;;;;;;;20.70;4.15;;;29.60;99.90;;;;;;5053435;28;20082;-70
2022/08/19 00:55:49;;;;;;;25.05;3.88;;;29.60;99.90;;;;;;5053330;28;20473;-70
2022/08/19 00:58:18;;;;;;;21.88;3.97;;;29.60;99.90;;;;;;5053722;28;20149;-70
2022/08/19 01:00:46;;;;;;;26.23;4.80;;;29.50;99.90;;;;;;5053416;28;20481;-70
2022/08/19 01:03:16;;;;;;;22.95;4.53;;;29.50;99.90;;;;;;5053546;28;20032;-70
2022/08/19 01:05:44;;;;;;;24.88;4.05;;;29.50;99.90;;;;;;5053185;28;20035;-69
2022/08/19 01:08:12;;;;;;;22.45;4.05;;;29.50;99.90;;;;;;5051922;28;20373;-70
2022/08/19 01:10:41;;;;;;;29.55;4.72;;;29.50;99.90;;;;;;5053227;28;20449;-70
2022/08/19 01:13:08;;;;;;;23.45;4.55;;;29.40;99.90;;;;;;5053005;28;20021;-70
2022/08/19 01:15:45;;;;;;;23.85;4.10;;;29.40;99.90;;;;;;5053234;28;20033;-70
2022/08/19 01:18:15;;;;;;;22.15;4.18;;;29.40;99.90;;;;;;5053296;28;20031;-69
2022/08/19 01:20:44;;;;;;;29.95;4.50;;;29.40;99.90;;;;;;5053208;28;20055;-70
2022/08/19 01:23:10;;;;;;;25.15;4.20;;;29.40;99.90;;;;;;5053120;28;20365;-70
2022/08/19 01:25:50;;;;;;;27.90;4.28;;;29.30;99.90;;;;;;5052913;28;20104;-70
2022/08/19 01:28:27;;;;;;;27.15;4.38;;;29.30;99.90;;;;;;5052783;28;20063;-70
2022/08/19 01:30:54;;;;;;;32.42;4.57;;;29.30;99.90;;;;;;5052985;28;20430;-70
2022/08/19 01:33:20;;;;;;;27.35;4.25;;;29.30;99.90;;;;;;5052732;28;20071;-70
2022/08/19 01:35:51;;;;;;;22.25;4.10;;;29.20;99.90;;;;;;5052655;28;20449;-70
2022/08/19 01:38:26;;;;;;;23.98;4.50;;;29.30;99.90;;;;;;5051153;28;20029;-70
2022/08/19 01:40:52;;;;;;;21.27;4.63;;;29.20;99.90;;;;;;5051165;28;20025;-70
2022/08/19 01:43:19;;;;;;;24.33;4.45;;;29.20;99.90;;;;;;5052710;28;20029;-71
2022/08/19 01:45:46;;;;;;;;;;;29.30;99.90;;;;;;5051442;28;20510;-70
2022/08/19 01:48:13;;;;;;;22.55;4.13;;;29.30;99.90;;;;;;5052819;28;19942;-71
2022/08/19 01:50:39;;;;;;;26.77;4.55;;;29.30;99.90;;;;;;5052394;28;20084;-70
2022/08/19 01:53:10;;;;;;;22.85;4.95;;;29.30;99.90;;;;;;5050950;28;20397;-70
2022/08/19 01:55:38;;;;;;;24.67;4.25;;;29.30;99.90;;;;;;5052695;28;20029;-70
2022/08/19 01:58:05;;;;;;;22.17;4.45;;;29.30;99.90;;;;;;5052625;28;20123;-69
2022/08/19 02:00:32;;;;;;;23.23;4.65;;;29.20;99.90;;;;;;5052388;28;20029;-70
2022/08/19 02:03:00;;;;;;;26.50;4.60;;;29.20;99.90;;;;;;5052484;28;20025;-70
2022/08/19 02:05:29;;;;;;;20.30;3.88;;;29.20;99.90;;;;;;5052157;28;20029;-70
2022/08/19 02:07:56;;;;;;;28.98;4.70;;;29.20;99.90;;;;;;5052067;28;20028;-70
2022/08/19 02:10:23;;;;;;;31.25;4.80;;;29.20;99.90;;;;;;5052062;28;20033;-70
2022/08/19 02:12:51;;;;;;;;;;;29.20;99.90;;;;;;5052798;28;20036;-70
2022/08/19 02:15:19;;;;;;;29.27;4.80;;;29.20;99.90;;;;;;5051816;28;20299;-70
2022/08/19 02:17:46;;;;;;;24.58;5.10;;;29.30;99.90;;;;;;5052005;28;20087;-71
2022/08/19 02:20:13;;;;;;;27.73;4.30;;;29.10;99.90;;;;;;5052178;28;20036;-70
2022/08/19 02:22:42;;;;;;;28.02;4.32;;;29.00;99.90;;;;;;5051858;28;20040;-70
2022/08/19 02:25:13;;;;;;;23.13;4.45;;;29.00;99.90;;;;;;5051730;28;20124;-70
2022/08/19 02:27:39;;;;;;;30.63;4.55;;;29.00;99.90;;;;;;5051791;28;20049;-70
2022/08/19 02:30:08;;;;;;;25.27;4.88;;;28.90;99.90;;;;;;5051827;28;20017;-70
2022/08/19 02:32:35;;;;;;;19.90;4.93;;;28.80;99.90;;;;;;5051863;28;20056;-70
2022/08/19 02:35:01;;;;;;;28.67;4.05;;;28.90;99.90;;;;;;5050706;28;20021;-70
2022/08/19 02:40:12;;;;;;;30.90;4.38;;;28.70;99.90;;;;;;5051257;28;19912;-70
2022/08/19 02:42:38;;;;;;;;;;;28.70;99.90;;;;;;5051792;28;20504;-70
2022/08/19 02:45:05;;;;;;;23.23;4.53;;;28.60;99.90;;;;;;5051338;28;20087;-70
2022/08/19 02:47:32;;;;;;;25.63;4.70;;;28.60;99.90;;;;;;5051304;28;20025;-70
2022/08/19 02:49:58;;;;;;;27.65;4.82;;;28.60;99.90;;;;;;5051550;28;20508;-70
2022/08/19 02:52:25;;;;;;;17.45;4.40;;;28.50;99.90;;;;;;5051193;28;20029;-70
2022/08/19 02:54:51;;;;;;;22.05;3.90;;;28.60;99.90;;;;;;5051663;28;20464;-70
2022/08/19 02:57:17;;;;;;;23.75;4.47;;;28.60;99.90;;;;;;5051709;28;20477;-70
2022/08/19 02:59:43;;;;;;;26.80;4.50;;;28.60;99.90;;;;;;5051324;28;20127;-70
2022/08/19 03:02:09;;;;;;;25.58;4.38;;;28.60;99.90;;;;;;5051302;28;20021;-70
2022/08/19 03:04:35;;;;;;;29.33;5.05;;;28.60;99.90;;;;;;5051239;28;20107;-70
2022/08/19 03:07:01;;;;;;;25.27;4.30;;;28.60;99.90;;;;;;5051726;28;20071;-70
2022/08/19 03:09:27;;;;;;;21.73;4.50;;;28.60;99.90;;;;;;5051782;28;20410;-70
2022/08/19 03:11:53;;;;;;;20.67;4.32;;;28.50;99.90;;;;;;5051729;28;20115;-70
2022/08/19 03:14:19;;;;;;;34.33;4.72;;;28.40;99.90;;;;;;5051556;28;20047;-70
2022/08/19 03:16:48;;;;;;;27.30;4.30;;;28.10;99.90;;;;;;5051695;28;20036;-70
2022/08/19 03:19:16;;;;;;;32.13;5.20;;;28.00;99.90;;;;;;5051199;28;20029;-70
2022/08/19 03:21:44;;;;;;;24.42;5.00;;;27.90;99.90;;;;;;5052424;28;20021;-70
2022/08/19 03:24:11;;;;;;;27.13;4.93;;;27.90;99.90;;;;;;5051889;28;20106;-70
2022/08/19 03:26:43;;;;;;;24.73;4.70;;;27.90;99.90;;;;;;5051804;28;20025;-70
2022/08/19 03:29:11;;;;;;;32.20;5.45;;;27.90;99.90;;;;;;5052160;28;20040;-70
2022/08/19 03:31:39;;;;;;;26.73;5.32;;;27.80;99.90;;;;;;5051843;28;20111;-70
2022/08/19 03:34:05;;;;;;;30.45;4.50;;;27.90;99.90;;;;;;5050359;28;20032;-70
2022/08/19 03:36:31;;;;;;;25.08;4.68;;;27.90;99.90;;;;;;5051806;28;20029;-70
2022/08/19 03:38:59;;;;;;;;;;;27.80;99.90;;;;;;5052252;28;20021;-70
2022/08/19 03:41:31;;;;;;;25.45;4.68;;;27.80;99.90;;;;;;5051936;28;19904;-70
2022/08/19 03:43:57;;;;;;;27.10;4.43;;;27.80;99.90;;;;;;5052265;28;20146;-71
2022/08/19 03:46:24;;;;;;;;;;;27.90;99.90;;;;;;5051486;28;20385;-70
2022/08/19 03:48:53;;;;;;;24.65;4.50;;;27.90;99.90;;;;;;5051615;28;19905;-70
2022/08/19 03:51:32;;;;;;;23.30;4.47;;;27.90;99.90;;;;;;5051765;28;20037;-71
2022/08/19 03:54:00;;;;;;;27.15;5.05;;;28.00;99.90;;;;;;5051490;28;20115;-70
2022/08/19 03:56:30;;;;;;;22.50;5.03;;;28.00;99.90;;;;;;5051499;28;20126;-70
2022/08/19 03:58:57;;;;;;;28.50;5.28;;;28.00;99.90;;;;;;5051485;28;20481;-71
2022/08/19 04:01:28;;;;;;;31.45;5.22;;;28.00;99.90;;;;;;5052162;28;20024;-71
2022/08/19 04:03:58;;;;;;;26.33;4.30;;;27.90;99.90;;;;;;5051630;28;20029;-71
2022/08/19 04:06:31;;;;;;;21.92;4.93;;;28.00;99.90;;;;;;5051233;28;20460;-70
2022/08/19 04:08:59;;;;;;;22.95;4.82;;;28.00;99.90;;;;;;5051744;28;20469;-70
2022/08/19 04:11:33;;;;;;;29.33;5.57;;;27.90;99.90;;;;;;5051534;28;20048;-71
2022/08/19 04:14:00;;;;;;;29.45;4.88;;;28.00;99.90;;;;;;5051531;28;20386;-70
2022/08/19 04:16:29;;;;;;;;;;;27.90;99.90;;;;;;5051906;28;20049;-71
2022/08/19 04:18:56;;;;;;;29.92;5.60;;;27.90;99.90;;;;;;5052343;28;19912;-70
2022/08/19 04:21:25;;;;;;;29.88;5.07;;;28.00;99.90;;;;;;5052624;28;20017;-70
2022/08/19 04:23:52;;;;;;;27.00;4.93;;;28.00;99.90;;;;;;5052644;28;20036;-70
2022/08/19 04:26:22;;;;;;;29.17;4.63;;;28.00;99.90;;;;;;5052271;28;20346;-71
2022/08/19 04:28:49;;;;;;;29.77;4.72;;;28.00;99.90;;;;;;5051898;28;20091;-70
2022/08/19 04:31:18;;;;;;;30.67;5.35;;;28.00;99.90;;;;;;5052428;28;20078;-70
2022/08/19 04:33:44;;;;;;;24.90;4.72;;;28.00;99.90;;;;;;5051704;28;20033;-70
2022/08/19 04:36:19;;;;;;;35.45;5.55;;;27.90;99.90;;;;;;5051861;28;20025;-70
2022/08/19 04:38:45;;;;;;;32.72;5.35;;;27.90;99.90;;;;;;5052869;28;20028;-70
2022/08/19 04:43:55;;;;;;;27.02;4.88;;;27.90;99.90;;;;;;5052390;28;20121;-71
2022/08/19 04:46:21;;;;;;;22.45;4.97;;;28.00;99.90;;;;;;5052542;28;20029;-70
2022/08/19 04:48:47;;;;;;;26.15;4.63;;;28.00;99.90;;;;;;5052762;28;20021;-70
2022/08/19 04:51:15;;;;;;;36.28;5.05;;;28.10;99.90;;;;;;5052217;28;20477;-70
2022/08/19 04:53:41;;;;;;;28.30;5.70;;;28.10;99.90;;;;;;5052578;28;20377;-70
2022/08/19 04:56:13;;;;;;;29.98;5.80;;;28.20;99.90;;;;;;5052253;28;20028;-70
2022/08/19 04:58:42;;;;;;;29.70;6.82;;;28.30;99.90;;;;;;5053482;28;20391;-71
2022/08/19 05:01:12;;;;;;;25.20;6.45;;;28.40;99.90;;;;;;5054342;28;20025;-71
2022/08/19 05:03:38;;;;;;;28.58;6.18;;;28.50;99.90;;;;;;5055669;28;20070;-70
2022/08/19 05:06:07;;;;;;;38.22;6.25;;;28.60;99.90;;;;;;5056113;28;20017;-70
2022/08/19 05:08:35;;;;;;;27.58;5.32;;;28.70;99.90;;;;;;5055947;28;20028;-70
2022/08/19 05:11:10;;;;;;;23.38;5.00;;;28.70;99.90;;;;;;5055496;28;20163;-70
2022/08/19 05:13:37;;;;;;;24.15;4.88;;;28.70;99.90;;;;;;5055073;28;20041;-71
2022/08/19 05:16:04;;;;;;;27.42;5.75;;;29.00;99.90;;;;;;5055729;28;20487;-70
2022/08/19 05:24:02;;;;;;;31.35;4.63;;;29.40;99.90;;;;;;5055748;28;20420;-71
2022/08/19 05:26:28;;;;;;;31.90;6.13;;;29.50;99.90;;;;;;5055081;28;20025;-71
2022/08/19 05:28:55;;;;;;;28.95;5.15;;;29.60;99.90;;;;;;5054897;28;20081;-70
2022/08/19 05:31:21;;;;;;;31.27;5.40;;;29.70;99.90;;;;;;5053424;28;20500;-70
2022/08/19 05:33:49;;;;;;;26.83;5.03;;;29.80;99.90;;;;;;5054408;28;20045;-71
2022/08/19 05:36:15;;;;;;;33.45;5.70;;;30.20;99.90;;;;;;5053635;28;20060;-70
2022/08/19 05:38:41;;;;;;;29.38;6.10;;;30.40;99.90;;;;;;5054752;28;20060;-70
2022/08/19 05:41:12;;;;;;;24.35;6.00;;;30.50;99.90;;;;;;5054770;28;20032;-71
2022/08/19 05:43:39;;;;;;;30.23;5.43;;;30.80;99.90;;;;;;5054799;28;20025;-71
2022/08/19 05:46:06;;;;;;;;;;;31.00;99.90;;;;;;5055504;28;20087;-71
2022/08/19 05:48:35;;;;;;;24.13;5.43;;;31.30;99.90;;;;;;5054449;28;20361;-71
2022/08/19 05:51:06;;;;;;;36.40;4.93;;;31.70;99.90;;;;;;5054585;28;20385;-71
2022/08/19 05:53:33;;;;;;;26.73;5.75;;;31.80;99.90;;;;;;5052921;28;20033;-71
2022/08/19 05:56:09;;;;;;;28.40;4.90;;;31.90;99.90;;;;;;5054480;28;20029;-71
2022/08/19 05:58:36;;;;;;;26.88;5.20;;;31.90;99.90;;;;;;5054803;28;20021;-70
2022/08/19 06:01:05;;;;;;;33.90;5.22;;;32.10;99.90;;;;;;5054011;28;20102;-71
2022/08/19 06:03:37;;;;;;;26.85;4.50;;;32.20;99.90;;;;;;5054063;28;20039;-71
2022/08/19 06:06:05;;;;;;;24.77;4.68;;;32.50;99.90;;;;;;5053911;28;20032;-70
2022/08/19 06:08:32;;;;;;;20.38;4.13;;;32.40;99.90;;;;;;5053951;28;20098;-71
2022/08/19 06:11:11;;;;;;;21.75;4.60;;;32.50;99.90;;;;;;5053447;28;20083;-71
2022/08/19 06:13:37;;;;;;;31.05;5.13;;;32.30;99.90;;;;;;5054240;28;20090;-71
2022/08/19 06:16:03;;;;;;;25.42;4.85;;;32.10;99.90;;;;;;5053837;28;20029;-70
2022/08/19 06:18:29;;;;;;;;;;;31.60;99.90;;;;;;5054778;28;20465;-70
2022/08/19 06:20:55;;;;;;;27.40;4.72;;;31.50;99.90;;;;;;5054091;28;19912;-70
2022/08/19 06:23:21;;;;;;;28.83;4.35;;;31.30;99.90;;;;;;5054033;28;20017;-70
2022/08/19 06:25:47;;;;;;;;;;;31.40;99.90;;;;;;5054731;28;20025;-71
2022/08/19 06:28:13;;;;;;;31.45;4.80;;;31.40;99.90;;;;;;5052267;28;20285;-70
2022/08/19 06:30:39;;;;;;;26.63;4.95;;;31.40;99.90;;;;;;5053823;28;20093;-71
2022/08/19 06:33:05;;;;;;;;;;;31.30;99.90;;;;;;5053966;28;20021;-71
2022/08/19 06:35:31;;;;;;;26.23;4.95;;;31.10;99.90;;;;;;5053794;28;19916;-70
2022/08/19 06:37:57;;;;;;;;;;;31.20;99.90;;;;;;5054601;28;20032;-71
2022/08/19 06:40:23;;;;;;;31.58;5.43;;;31.10;99.90;;;;;;5053720;28;19904;-71
2022/08/19 06:42:49;;;;;;;24.00;5.10;;;31.00;99.90;;;;;;5053586;28;20436;-70
2022/08/19 06:45:16;;;;;;;23.60;4.30;;;31.00;99.90;;;;;;5053712;28;20098;-70
2022/08/19 06:47:45;;;;;;;30.55;4.95;;;31.10;99.90;;;;;;5053737;28;20497;-70
2022/08/19 06:50:12;;;;;;;28.00;5.28;;;31.30;99.90;;;;;;5054099;28;20039;-70
2022/08/19 06:52:39;;;;;;;33.53;5.85;;;31.30;99.90;;;;;;5053331;28;20028;-72
2022/08/19 06:55:05;;;;;;;32.42;5.38;;;31.40;99.90;;;;;;5051961;28;20033;-70
2022/08/19 06:57:32;;;;;;;24.25;5.28;;;31.80;99.90;;;;;;5053266;28;20025;-70
2022/08/19 06:59:59;;;;;;;23.45;4.90;;;32.50;99.90;;;;;;5053252;28;20481;-70
2022/08/19 07:02:26;;;;;;;35.45;6.18;;;33.30;99.90;;;;;;5053851;28;20024;-70
2022/08/19 07:04:53;;;;;;;34.50;6.20;;;33.80;99.90;;;;;;5053521;28;20025;-70
2022/08/19 07:07:20;;;;;;;31.58;5.65;;;34.50;99.90;;;;;;5053192;28;20086;-70
2022/08/19 07:09:46;;;;;;;29.48;4.70;;;34.80;99.90;;;;;;5053048;28;20516;-70
2022/08/19 07:12:15;;;;;;;25.63;4.80;;;34.60;99.90;;;;;;5052984;28;20025;-70
2022/08/19 07:14:41;;;;;;;25.88;4.88;;;35.20;99.90;;;;;;5052939;28;20041;-70
2022/08/19 07:17:10;;;;;;;37.83;6.05;;;35.30;99.90;;;;;;5052851;28;20172;-70
2022/08/19 07:19:38;;;;;;;25.20;4.40;;;35.20;99.90;;;;;;5053244;28;20059;-70
2022/08/19 07:22:06;;;;;;;25.80;4.30;;;34.90;99.90;;;;;;5052750;28;20021;-70
2022/08/19 07:24:33;;;;;;;34.70;5.78;;;34.80;99.90;;;;;;5053289;28;20466;-70
2022/08/19 07:27:03;;;;;;;30.85;4.57;;;34.00;99.90;;;;;;5052581;28;20021;-70
2022/08/19 07:29:33;;;;;;;31.67;5.60;;;33.70;99.90;;;;;;5053296;28;20389;-70
2022/08/19 07:32:00;;;;;;;30.88;5.10;;;33.20;99.90;;;;;;5051439;28;20017;-70
2022/08/19 07:34:28;;;;;;;24.30;4.82;;;32.90;99.90;;;;;;5053083;28;20032;-70
2022/08/19 07:36:55;;;;;;;23.73;4.40;;;32.50;99.90;;;;;;5052755;28;20025;-70
2022/08/19 07:39:25;;;;;;;28.73;4.85;;;32.60;99.90;;;;;;5051378;28;20035;-70
2022/08/19 07:41:52;;;;;;;30.55;4.80;;;32.80;99.90;;;;;;5053211;28;20029;-70
2022/08/19 07:44:20;;;;;;;30.67;5.15;;;32.80;99.90;;;;;;5052757;28;20086;-70
2022/08/19 07:46:51;;;;;;;27.98;4.88;;;32.60;99.90;;;;;;5051060;28;20029;-70
2022/08/19 07:49:19;;;;;;;32.33;5.93;;;32.30;99.90;;;;;;5052634;28;20470;-70
2022/08/19 07:51:52;;;;;;;28.83;5.15;;;32.00;99.90;;;;;;5051739;28;20094;-70
2022/08/19 07:54:19;;;;;;;30.00;5.38;;;32.10;99.90;;;;;;5051750;28;20044;-70
2022/08/19 07:56:45;;;;;;;30.00;5.57;;;32.30;99.90;;;;;;5050261;28;20025;-70
2022/08/19 07:59:12;;;;;;;33.72;5.30;;;32.50;99.90;;;;;;5051860;28;20100;-70
2022/08/19 08:01:39;;;;;;;29.48;5.18;;;33.00;99.90;;;;;;5050418;28;20116;-71
2022/08/19 08:09:38;;;;;;;23.20;4.53;;;34.50;99.90;;;;;;5051892;28;20388;-71
2022/08/19 08:12:15;;;;;;;22.23;4.65;;;34.40;99.90;;;;;;5051640;28;20013;-71
2022/08/19 08:14:48;;;;;;;29.42;4.60;;;34.30;99.90;;;;;;5051992;28;20032;-71
2022/08/19 08:17:16;;;;;;;25.20;5.03;;;34.40;99.90;;;;;;5050773;28;20385;-71
2022/08/19 08:19:44;;;;;;;21.05;3.97;;;34.40;99.90;;;;;;5052216;28;20504;-71
2022/08/19 08:25:00;;;;;;;22.73;4.93;;;33.80;99.90;;;;;;5053016;28;20108;-72
2022/08/19 08:27:30;;;;;;;18.67;4.47;;;33.70;99.90;;;;;;5052601;28;20217;-71
2022/08/19 08:29:57;;;;;;;21.02;4.60;;;33.50;99.90;;;;;;5052382;28;20036;-71
2022/08/19 08:32:23;;;;;;;17.38;4.00;;;34.00;99.90;;;;;;5053213;28;20039;-71
2022/08/19 08:34:49;;;;;;;;;;;34.20;99.80;;;;;;5057222;28;20032;-71
2022/08/19 08:37:15;;;;;;;15.32;3.83;;;34.30;99.30;;;;;;5056250;28;19911;-71
2022/08/19 08:39:41;;;;;;;19.55;4.38;;;34.50;98.60;;;;;;5054944;28;20029;-71
2022/08/19 08:42:36;;;;;;;16.48;4.05;;;34.60;98.20;;;;;;5056299;28;20095;-71
2022/08/19 08:45:15;;;;;;;18.38;4.57;;;34.80;97.80;;;;;;5056498;28;20029;-69
2022/08/19 08:47:47;;;;;;;18.13;4.28;;;34.40;97.90;;;;;;5056325;28;20032;-69
2022/08/19 08:50:23;;;;;;;21.83;4.38;;;34.00;98.50;;;;;;5055825;28;20032;-70
2022/08/19 08:52:54;;;;;;;14.43;4.00;;;34.30;98.10;;;;;;5055459;28;20121;-69
2022/08/19 08:55:27;;;;;;;18.15;4.22;;;34.00;98.40;;;;;;5055306;28;20063;-70
2022/08/19 08:58:05;;;;;;;20.17;4.45;;;33.80;98.60;;;;;;5055525;28;20151;-70
2022/08/19 09:00:34;;;;;;;19.85;4.15;;;34.10;98.30;;;;;;5055885;28;20028;-71
2022/08/19 09:03:03;;;;;;;19.08;4.38;;;34.30;98.10;;;;;;5054938;28;20057;-71
2022/08/19 09:05:58;;;;;;;18.98;4.13;;;34.20;97.90;;;;;;5055564;28;20472;-71
2022/08/19 09:08:59;;;;;;;20.02;4.57;;;34.60;98.00;;;;;;5055680;28;20059;-70
2022/08/19 09:11:56;;;;;;;16.08;4.28;;;35.00;97.10;;;;;;5055522;28;20470;-70
2022/08/19 09:14:56;;;;;;;19.20;4.22;;;35.50;96.30;;;;;;5055273;28;20523;-71
2022/08/19 09:17:30;;;;;;;20.92;4.65;;;35.80;95.10;;;;;;5055309;28;20036;-71
2022/08/19 09:20:08;;;;;;;19.40;4.38;;;35.80;94.90;;;;;;5055845;28;20111;-71
2022/08/19 09:22:38;;;;;;;23.90;4.10;;;35.80;94.50;;;;;;5055176;28;20482;-70
2022/08/19 09:25:05;;;;;;;18.35;4.40;;;35.90;93.70;;;;;;5055901;28;20512;-71
2022/08/19 09:27:32;;;;;;;14.35;3.67;;;36.00;93.80;;;;;;5054703;28;20045;-71
2022/08/19 09:29:58;;;;;;;23.88;4.20;;;36.20;92.90;;;;;;5055528;28;20462;-71
2022/08/19 09:32:27;;;;;;;17.00;4.20;;;36.50;92.20;;;;;;5055420;28;20052;-70
2022/08/19 09:34:54;;;;;;;21.95;4.25;;;36.40;92.20;;;;;;5054916;28;20108;-71
2022/08/19 09:37:22;;;;;;;18.50;3.92;;;36.60;91.90;;;;;;5055063;28;20060;-71
2022/08/19 09:39:48;;;;;;;19.67;3.90;;;36.80;91.30;;;;;;5054796;28;20474;-71
2022/08/19 09:42:14;;;;;;;17.02;3.70;;;36.60;91.10;;;;;;5054972;28;20550;-71
2022/08/19 09:44:41;;;;;;;24.75;4.50;;;36.60;90.90;;;;;;5053928;28;20166;-71
2022/08/19 09:47:10;;;;;;;21.48;4.15;;;36.60;90.60;;;;;;5054728;28;20511;-71
2022/08/19 09:49:38;;;;;;;22.60;4.45;;;36.40;90.80;;;;;;5054763;28;20025;-71
2022/08/19 09:52:04;;;;;;;18.88;4.90;;;36.50;90.20;;;;;;5054513;28;20166;-71
2022/08/19 09:54:30;;;;;;;21.20;4.10;;;36.70;90.40;;;;;;5054132;28;20110;-71
2022/08/19 09:57:02;;;;;;;19.92;4.20;;;36.90;91.10;;;;;;5054342;28;20508;-71
2022/08/19 09:59:28;;;;;;;22.77;4.35;;;37.10;91.00;;;;;;5052530;28;20115;-71
2022/08/19 10:01:55;;;;;;;27.85;5.18;;;37.10;91.00;;;;;;5054405;28;20104;-71
2022/08/19 10:04:21;;;;;;;18.98;3.60;;;37.20;90.80;;;;;;5053919;28;20031;-71
2022/08/19 10:06:49;;;;;;;14.68;3.47;;;37.30;91.30;;;;;;5054247;28;20029;-71
2022/08/19 10:09:17;;;;;;;16.30;3.40;;;37.30;91.40;;;;;;5054011;28;20569;-71
2022/08/19 10:11:49;;;;;;;13.25;3.25;;;37.20;91.20;;;;;;5054410;28;20059;-72
2022/08/19 10:14:16;;;;;;;18.83;2.90;;;37.30;90.50;;;;;;5054146;28;20440;-71
2022/08/19 10:16:43;;;;;;;13.57;2.65;;;37.50;90.30;;;;;;5053977;28;20021;-71
2022/08/19 10:19:09;;;;;;;16.92;3.22;;;37.60;90.20;;;;;;5054297;28;20025;-71
2022/08/19 10:21:35;;;;;;;16.02;3.20;;;37.60;89.50;;;;;;5052728;28;20036;-71
2022/08/19 10:24:05;;;;;;;18.77;3.58;;;37.40;90.30;;;;;;5053869;28;20095;-71
2022/08/19 10:26:38;;;;;;;16.65;3.78;;;37.50;89.50;;;;;;5053894;28;20021;-71
2022/08/19 10:29:05;;;;;;;17.27;2.83;;;37.30;87.60;;;;;;5053700;28;20049;-71
2022/08/19 10:31:33;;;;;;;12.32;2.40;;;37.30;86.50;;;;;;5053553;28;20473;-71
2022/08/19 10:34:00;;;;;;;16.05;2.90;;;37.40;85.00;;;;;;5053128;28;20108;-71
2022/08/19 10:36:34;;;;;;;15.07;2.85;;;37.30;84.10;;;;;;5053795;28;20108;-71
2022/08/19 10:39:03;;;;;;;12.63;2.67;;;37.20;85.30;;;;;;5054039;28;20025;-70
2022/08/19 10:41:32;;;;;;;16.15;3.30;;;37.10;86.40;;;;;;5053698;28;20359;-71
2022/08/19 10:44:06;;;;;;;16.30;3.03;;;37.10;85.20;;;;;;5054141;28;20079;-71
2022/08/19 10:46:36;;;;;;;24.67;3.08;;;37.10;83.50;;;;;;5053848;28;20381;-71
2022/08/19 10:49:05;;;;;;;15.07;2.70;;;37.30;84.00;;;;;;5054045;28;20025;-71
2022/08/19 10:54:17;;;;;;;13.70;2.40;;;37.20;84.00;;;;;;5052375;28;20079;-71
2022/08/19 10:56:53;;;;;;;19.25;3.03;;;37.40;81.40;;;;;;5052471;28;20021;-70
2022/08/19 10:59:21;;;;;;;17.80;4.38;;;36.80;82.20;;;;;;5051468;28;20032;-70
2022/08/19 11:01:49;;;;;;;22.90;5.03;;;36.60;82.80;;;;;;5052209;28;20055;-71
2022/08/19 11:04:17;;;;;;;22.63;4.80;;;36.70;83.10;;;;;;5051996;28;20109;-70
2022/08/19 11:06:48;;;;;;;18.30;4.65;;;36.90;82.30;;;;;;5052633;28;20055;-70
2022/08/19 11:09:16;;;;;;;24.98;5.25;;;37.00;82.60;;;;;;5052389;28;20509;-70
2022/08/19 11:11:42;;;;;;;24.15;5.47;;;37.20;82.40;;;;;;5052088;28;20033;-70
2022/08/19 11:14:10;;;;;;;19.90;5.28;;;37.40;82.40;;;;;;5052248;28;20037;-70
2022/08/19 11:16:38;;;;;;;13.80;3.83;;;37.40;81.50;;;;;;5052790;28;20017;-70
2022/08/19 11:19:07;;;;;;;19.27;3.58;;;37.30;80.90;;;;;;5052274;28;20485;-70
2022/08/19 11:21:39;;;;;;;17.92;3.45;;;37.30;81.40;;;;;;5053241;28;20028;-70
2022/08/19 11:24:15;;;;;;;12.07;2.70;;;37.60;80.60;;;;;;5053519;28;20037;-70
2022/08/19 11:26:43;;;;;;;12.50;2.70;;;37.70;75.90;;;;;;5051745;28;20116;-71
2022/08/19 11:29:12;;;;;;;13.90;2.58;;;38.00;74.50;;;;;;5053171;28;20130;-71
2022/08/19 11:31:41;;;;;;;16.25;2.58;;;38.20;75.80;;;;;;5052894;28;20116;-71
2022/08/19 11:34:10;;;;;;;15.75;2.58;;;38.20;78.50;;;;;;5051384;28;20052;-71
2022/08/19 11:36:39;;;;;;;49.33;3.78;;;38.30;78.60;;;;;;5052809;28;20025;-70
2022/08/19 11:39:07;;;;;;;9.82;2.05;;;38.30;77.60;;;;;;5053005;28;20469;-70
2022/08/19 11:41:33;;;;;;;23.45;2.50;;;38.40;78.20;;;;;;5052622;28;20021;-70
2022/08/19 11:43:59;;;;;;;6.88;1.85;;;38.30;78.10;;;;;;5051349;28;20388;-70
2022/08/19 11:46:29;;;;;;;11.13;1.95;;;37.90;77.20;;;;;;5052412;28;20017;-70
2022/08/19 11:48:56;;;;;;;11.85;2.35;;;38.10;77.90;;;;;;5052430;28;20044;-70
2022/08/19 11:51:26;;;;;;;17.85;2.53;;;38.00;77.70;;;;;;5050637;28;20025;-70
2022/08/19 11:53:57;;;;;;;9.18;2.10;;;37.80;77.90;;;;;;5051997;28;20067;-70
2022/08/19 11:56:23;;;;;;;13.57;2.35;;;37.70;77.90;;;;;;5052361;28;20028;-70
2022/08/19 11:58:50;;;;;;;10.25;2.20;;;37.20;79.80;;;;;;5051686;28;20025;-70
2022/08/19 12:01:18;;;;;;;15.25;1.95;;;36.90;81.10;;;;;;5051734;28;20079;-70
2022/08/19 12:03:46;;;;;;;11.10;2.10;;;36.90;81.00;;;;;;5052036;28;20036;-71
2022/08/19 12:06:18;;;;;;;16.65;2.00;;;37.10;80.80;;;;;;5052044;28;20073;-71
2022/08/19 12:08:45;;;;;;;18.63;2.20;;;37.30;80.80;;;;;;5055037;28;20059;-71
2022/08/19 12:11:13;;;;;;;10.77;1.90;;;37.40;79.50;;;;;;5055661;28;20327;-70
2022/08/19 12:13:40;;;;;;;23.15;2.40;;;37.40;79.60;;;;;;5056350;28;20029;-72
2022/08/19 12:16:12;;;;;;;16.75;2.28;;;37.50;80.50;;;;;;5056213;28;20079;-71
2022/08/19 12:18:50;;;;;;;16.38;2.42;;;37.60;78.00;;;;;;5055128;28;20025;-70
2022/08/19 12:21:24;;;;;;;9.25;1.77;;;37.50;78.00;;;;;;5056400;28;20498;-70
2022/08/19 12:23:52;;;;;;;22.35;2.30;;;37.50;76.80;;;;;;5056841;28;20377;-71
2022/08/19 12:26:18;;;;;;;14.00;2.00;;;37.50;75.80;;;;;;5056745;28;20032;-70
2022/08/19 12:28:45;;;;;;;12.50;2.22;;;37.40;75.90;;;;;;5056262;28;20052;-70
2022/08/19 12:31:11;;;;;;;9.05;1.88;;;37.60;75.30;;;;;;5056237;28;20100;-70
2022/08/19 12:33:38;;;;;;;19.15;2.65;;;37.60;75.30;;;;;;5056217;28;20035;-70
2022/08/19 12:36:08;;;;;;;11.27;1.75;;;37.70;75.30;;;;;;5056098;28;20099;-70
2022/08/19 12:38:37;;;;;;;20.08;3.10;;;37.60;75.60;;;;;;5056192;28;20048;-70
2022/08/19 12:41:06;;;;;;;11.13;2.15;;;37.50;75.80;;;;;;5055959;28;20100;-70
2022/08/19 12:43:34;;;;;;;11.90;2.17;;;37.80;76.60;;;;;;5056124;28;20029;-71
2022/08/19 12:46:00;;;;;;;11.57;2.05;;;37.50;75.50;;;;;;5054371;28;20426;-71
2022/08/19 12:48:27;;;;;;;9.18;1.73;;;37.50;74.60;;;;;;5055824;28;20079;-70
2022/08/19 12:50:53;;;;;;;9.68;1.92;;;37.40;75.30;;;;;;5054095;28;20551;-70
2022/08/19 12:53:19;;;;;;;11.68;2.10;;;37.40;76.60;;;;;;5056073;28;20033;-71
2022/08/19 12:55:46;;;;;;;15.77;1.73;;;37.30;76.40;;;;;;5055555;28;20025;-70
2022/08/19 12:58:12;;;;;;;7.90;2.17;;;37.20;75.80;;;;;;5055167;28;20331;-71
2022/08/19 13:00:39;;;;;;;8.57;2.30;;;37.20;75.70;;;;;;5055349;28;20150;-70
2022/08/19 13:03:05;;;;;;;12.07;1.92;;;37.00;76.50;;;;;;5055625;28;20025;-70
2022/08/19 13:05:34;;;;;;;9.57;1.90;;;37.10;76.30;;;;;;5055680;28;20037;-71
2022/08/19 13:08:00;;;;;;;8.70;1.90;;;37.10;76.20;;;;;;5055291;28;20043;-70
2022/08/19 13:10:29;;;;;;;13.00;1.95;;;37.00;76.40;;;;;;5055503;28;20049;-70